sensor_id;sensor_type;location;lat;lon;timestamp;P1;durP1;ratioP1;P2;durP2;ratioP2
10721;SDS011;5412;59.450;18.124;2022-07-04T00:00:01;2.55;;;2.33;;
10721;SDS011;5412;59.450;18.124;2022-07-04T00:02:32;4.07;;;2.15;;
10721;SDS011;5412;59.450;18.124;2022-07-04T00:04:58;3.25;;;2.08;;
10721;SDS011;5412;59.450;18.124;2022-07-04T00:07:24;3.33;;;2.25;;
10721;SDS011;5412;59.450;18.124;2022-07-04T00:09:49;5.93;;;2.38;;
10721;SDS011;5412;59.450;18.124;2022-07-04T00:12:15;3.47;;;2.30;;
10721;SDS011;5412;59.450;18.124;2022-07-04T00:14:41;3.78;;;2.05;;
10721;SDS011;5412;59.450;18.124;2022-07-04T00:17:06;5.60;;;2.22;;
10721;SDS011;5412;59.450;18.124;2022-07-04T00:19:32;7.45;;;2.10;;
10721;SDS011;5412;59.450;18.124;2022-07-04T00:21:58;3.50;;;2.17;;
10721;SDS011;5412;59.450;18.124;2022-07-04T00:24:23;3.80;;;2.20;;
10721;SDS011;5412;59.450;18.124;2022-07-04T00:26:49;4.60;;;2.08;;
10721;SDS011;5412;59.450;18.124;2022-07-04T00:29:15;3.60;;;2.20;;
10721;SDS011;5412;59.450;18.124;2022-07-04T00:31:41;3.53;;;2.30;;
10721;SDS011;5412;59.450;18.124;2022-07-04T00:34:06;3.03;;;2.17;;
10721;SDS011;5412;59.450;18.124;2022-07-04T00:36:32;4.15;;;2.10;;
10721;SDS011;5412;59.450;18.124;2022-07-04T00:38:58;5.72;;;2.20;;
10721;SDS011;5412;59.450;18.124;2022-07-04T00:41:23;3.55;;;1.80;;
10721;SDS011;5412;59.450;18.124;2022-07-04T00:44:05;4.57;;;2.58;;
10721;SDS011;5412;59.450;18.124;2022-07-04T00:46:32;1.98;;;1.77;;
10721;SDS011;5412;59.450;18.124;2022-07-04T00:48:58;3.40;;;2.03;;
10721;SDS011;5412;59.450;18.124;2022-07-04T00:51:24;3.58;;;2.08;;
10721;SDS011;5412;59.450;18.124;2022-07-04T00:53:52;2.72;;;1.90;;
10721;SDS011;5412;59.450;18.124;2022-07-04T00:56:19;2.42;;;1.77;;
10721;SDS011;5412;59.450;18.124;2022-07-04T00:58:47;4.10;;;1.88;;
10721;SDS011;5412;59.450;18.124;2022-07-04T01:01:13;4.10;;;2.28;;
10721;SDS011;5412;59.450;18.124;2022-07-04T01:03:39;1.92;;;1.83;;
10721;SDS011;5412;59.450;18.124;2022-07-04T01:06:06;3.47;;;1.83;;
10721;SDS011;5412;59.450;18.124;2022-07-04T01:08:38;5.28;;;2.17;;
10721;SDS011;5412;59.450;18.124;2022-07-04T01:11:05;2.20;;;2.00;;
10721;SDS011;5412;59.450;18.124;2022-07-04T01:13:31;3.70;;;2.10;;
10721;SDS011;5412;59.450;18.124;2022-07-04T01:15:57;5.72;;;1.85;;
10721;SDS011;5412;59.450;18.124;2022-07-04T01:18:22;4.53;;;2.53;;
10721;SDS011;5412;59.450;18.124;2022-07-04T01:20:48;3.17;;;2.00;;
10721;SDS011;5412;59.450;18.124;2022-07-04T01:23:14;3.72;;;1.90;;
10721;SDS011;5412;59.450;18.124;2022-07-04T01:25:41;2.38;;;1.83;;
10721;SDS011;5412;59.450;18.124;2022-07-04T01:28:07;5.72;;;1.80;;
10721;SDS011;5412;59.450;18.124;2022-07-04T01:30:33;3.78;;;2.30;;
10721;SDS011;5412;59.450;18.124;2022-07-04T01:33:00;4.65;;;2.35;;
10721;SDS011;5412;59.450;18.124;2022-07-04T01:35:26;7.38;;;1.98;;
10721;SDS011;5412;59.450;18.124;2022-07-04T01:37:52;4.25;;;2.05;;
10721;SDS011;5412;59.450;18.124;2022-07-04T01:40:17;4.15;;;2.33;;
10721;SDS011;5412;59.450;18.124;2022-07-04T01:42:43;3.22;;;1.85;;
10721;SDS011;5412;59.450;18.124;2022-07-04T01:45:09;4.55;;;2.20;;
10721;SDS011;5412;59.450;18.124;2022-07-04T01:47:36;3.08;;;2.03;;
10721;SDS011;5412;59.450;18.124;2022-07-04T01:50:02;2.10;;;1.90;;
10721;SDS011;5412;59.450;18.124;2022-07-04T01:52:29;5.60;;;1.70;;
10721;SDS011;5412;59.450;18.124;2022-07-04T01:54:54;4.85;;;2.10;;
10721;SDS011;5412;59.450;18.124;2022-07-04T01:57:20;1.92;;;1.70;;
10721;SDS011;5412;59.450;18.124;2022-07-04T01:59:46;2.45;;;2.00;;
10721;SDS011;5412;59.450;18.124;2022-07-04T02:02:30;2.42;;;2.00;;
10721;SDS011;5412;59.450;18.124;2022-07-04T02:04:55;4.15;;;2.00;;
10721;SDS011;5412;59.450;18.124;2022-07-04T02:07:21;1.63;;;1.52;;
10721;SDS011;5412;59.450;18.124;2022-07-04T02:09:47;3.78;;;1.60;;
10721;SDS011;5412;59.450;18.124;2022-07-04T02:12:12;3.03;;;1.60;;
10721;SDS011;5412;59.450;18.124;2022-07-04T02:14:57;4.30;;;2.03;;
10721;SDS011;5412;59.450;18.124;2022-07-04T02:17:23;1.60;;;1.50;;
10721;SDS011;5412;59.450;18.124;2022-07-04T02:19:48;1.73;;;1.58;;
10721;SDS011;5412;59.450;18.124;2022-07-04T02:22:14;4.65;;;1.75;;
10721;SDS011;5412;59.450;18.124;2022-07-04T02:24:40;2.83;;;1.70;;
10721;SDS011;5412;59.450;18.124;2022-07-04T02:27:06;2.28;;;1.60;;
10721;SDS011;5412;59.450;18.124;2022-07-04T02:29:31;3.53;;;1.80;;
10721;SDS011;5412;59.450;18.124;2022-07-04T02:31:57;2.40;;;1.63;;
10721;SDS011;5412;59.450;18.124;2022-07-04T02:34:23;2.67;;;2.00;;
10721;SDS011;5412;59.450;18.124;2022-07-04T02:36:49;2.22;;;1.75;;
10721;SDS011;5412;59.450;18.124;2022-07-04T02:39:15;1.60;;;1.50;;
10721;SDS011;5412;59.450;18.124;2022-07-04T02:41:40;3.40;;;1.65;;
10721;SDS011;5412;59.450;18.124;2022-07-04T02:44:06;1.80;;;1.45;;
10721;SDS011;5412;59.450;18.124;2022-07-04T02:46:32;1.98;;;1.33;;
10721;SDS011;5412;59.450;18.124;2022-07-04T02:48:58;2.63;;;1.58;;
10721;SDS011;5412;59.450;18.124;2022-07-04T02:51:25;2.50;;;1.60;;
10721;SDS011;5412;59.450;18.124;2022-07-04T02:53:51;2.45;;;1.55;;
10721;SDS011;5412;59.450;18.124;2022-07-04T02:56:16;3.10;;;1.63;;
10721;SDS011;5412;59.450;18.124;2022-07-04T02:58:42;2.35;;;1.67;;
10721;SDS011;5412;59.450;18.124;2022-07-04T03:01:08;3.53;;;1.65;;
10721;SDS011;5412;59.450;18.124;2022-07-04T03:03:34;2.10;;;1.60;;
10721;SDS011;5412;59.450;18.124;2022-07-04T03:06:00;2.72;;;1.63;;
10721;SDS011;5412;59.450;18.124;2022-07-04T03:08:26;2.03;;;1.75;;
10721;SDS011;5412;59.450;18.124;2022-07-04T03:10:52;2.20;;;1.83;;
10721;SDS011;5412;59.450;18.124;2022-07-04T03:13:17;1.92;;;1.52;;
10721;SDS011;5412;59.450;18.124;2022-07-04T03:15:44;11.18;;;1.90;;
10721;SDS011;5412;59.450;18.124;2022-07-04T03:18:10;1.50;;;1.40;;
10721;SDS011;5412;59.450;18.124;2022-07-04T03:20:36;2.28;;;1.60;;
10721;SDS011;5412;59.450;18.124;2022-07-04T03:23:02;1.63;;;1.40;;
10721;SDS011;5412;59.450;18.124;2022-07-04T03:25:27;4.65;;;1.60;;
10721;SDS011;5412;59.450;18.124;2022-07-04T03:27:53;4.18;;;1.88;;
10721;SDS011;5412;59.450;18.124;2022-07-04T03:30:18;1.85;;;1.75;;
10721;SDS011;5412;59.450;18.124;2022-07-04T03:32:44;3.63;;;1.58;;
10721;SDS011;5412;59.450;18.124;2022-07-04T03:35:10;2.47;;;1.70;;
10721;SDS011;5412;59.450;18.124;2022-07-04T03:37:35;1.73;;;1.42;;
10721;SDS011;5412;59.450;18.124;2022-07-04T03:40:01;2.53;;;1.50;;
10721;SDS011;5412;59.450;18.124;2022-07-04T03:42:27;5.72;;;1.67;;
10721;SDS011;5412;59.450;18.124;2022-07-04T03:44:52;3.08;;;1.63;;
10721;SDS011;5412;59.450;18.124;2022-07-04T03:47:18;3.22;;;1.58;;
10721;SDS011;5412;59.450;18.124;2022-07-04T03:49:43;1.70;;;1.60;;
10721;SDS011;5412;59.450;18.124;2022-07-04T03:52:09;2.55;;;1.60;;
10721;SDS011;5412;59.450;18.124;2022-07-04T03:54:34;2.10;;;1.63;;
10721;SDS011;5412;59.450;18.124;2022-07-04T03:57:00;3.42;;;1.65;;
10721;SDS011;5412;59.450;18.124;2022-07-04T03:59:26;5.00;;;1.70;;
10721;SDS011;5412;59.450;18.124;2022-07-04T04:01:51;2.95;;;1.65;;
10721;SDS011;5412;59.450;18.124;2022-07-04T04:04:17;3.22;;;1.67;;
10721;SDS011;5412;59.450;18.124;2022-07-04T04:07:01;5.70;;;1.50;;
10721;SDS011;5412;59.450;18.124;2022-07-04T04:09:28;4.38;;;1.50;;
10721;SDS011;5412;59.450;18.124;2022-07-04T04:11:53;3.20;;;1.80;;
10721;SDS011;5412;59.450;18.124;2022-07-04T04:14:19;1.67;;;1.55;;
10721;SDS011;5412;59.450;18.124;2022-07-04T04:16:45;2.30;;;1.75;;
10721;SDS011;5412;59.450;18.124;2022-07-04T04:19:10;2.17;;;1.55;;
10721;SDS011;5412;59.450;18.124;2022-07-04T04:21:36;1.70;;;1.60;;
10721;SDS011;5412;59.450;18.124;2022-07-04T04:24:02;2.90;;;1.42;;
10721;SDS011;5412;59.450;18.124;2022-07-04T04:26:28;3.15;;;1.58;;
10721;SDS011;5412;59.450;18.124;2022-07-04T04:28:54;2.10;;;1.52;;
10721;SDS011;5412;59.450;18.124;2022-07-04T04:31:20;2.75;;;1.92;;
10721;SDS011;5412;59.450;18.124;2022-07-04T04:33:46;4.28;;;1.45;;
10721;SDS011;5412;59.450;18.124;2022-07-04T04:36:11;3.13;;;1.60;;
10721;SDS011;5412;59.450;18.124;2022-07-04T04:38:37;1.48;;;1.38;;
10721;SDS011;5412;59.450;18.124;2022-07-04T04:41:03;2.58;;;1.58;;
10721;SDS011;5412;59.450;18.124;2022-07-04T04:43:28;2.67;;;1.63;;
10721;SDS011;5412;59.450;18.124;2022-07-04T04:45:54;3.42;;;1.67;;
10721;SDS011;5412;59.450;18.124;2022-07-04T04:48:19;3.25;;;1.70;;
10721;SDS011;5412;59.450;18.124;2022-07-04T04:50:45;3.03;;;1.63;;
10721;SDS011;5412;59.450;18.124;2022-07-04T04:53:11;1.60;;;1.35;;
10721;SDS011;5412;59.450;18.124;2022-07-04T04:55:37;3.42;;;1.52;;
10721;SDS011;5412;59.450;18.124;2022-07-04T04:58:03;2.85;;;1.42;;
10721;SDS011;5412;59.450;18.124;2022-07-04T05:00:29;3.20;;;1.67;;
10721;SDS011;5412;59.450;18.124;2022-07-04T05:02:55;1.70;;;1.33;;
10721;SDS011;5412;59.450;18.124;2022-07-04T05:05:20;2.17;;;1.63;;
10721;SDS011;5412;59.450;18.124;2022-07-04T05:07:46;3.40;;;1.63;;
10721;SDS011;5412;59.450;18.124;2022-07-04T05:10:12;2.90;;;1.40;;
10721;SDS011;5412;59.450;18.124;2022-07-04T05:12:37;4.18;;;1.70;;
10721;SDS011;5412;59.450;18.124;2022-07-04T05:15:03;3.15;;;1.58;;
10721;SDS011;5412;59.450;18.124;2022-07-04T05:17:29;2.13;;;1.40;;
10721;SDS011;5412;59.450;18.124;2022-07-04T05:19:55;2.53;;;1.20;;
10721;SDS011;5412;59.450;18.124;2022-07-04T05:22:20;3.60;;;1.38;;
10721;SDS011;5412;59.450;18.124;2022-07-04T05:24:46;3.15;;;1.40;;
10721;SDS011;5412;59.450;18.124;2022-07-04T05:27:12;2.50;;;1.20;;
10721;SDS011;5412;59.450;18.124;2022-07-04T05:29:38;5.07;;;1.40;;
10721;SDS011;5412;59.450;18.124;2022-07-04T05:32:04;2.03;;;1.25;;
10721;SDS011;5412;59.450;18.124;2022-07-04T05:34:30;2.00;;;1.80;;
10721;SDS011;5412;59.450;18.124;2022-07-04T05:36:56;1.30;;;1.20;;
10721;SDS011;5412;59.450;18.124;2022-07-04T05:39:22;4.00;;;2.10;;
10721;SDS011;5412;59.450;18.124;2022-07-04T05:41:47;2.22;;;1.63;;
10721;SDS011;5412;59.450;18.124;2022-07-04T05:44:13;5.15;;;1.70;;
10721;SDS011;5412;59.450;18.124;2022-07-04T05:46:38;3.25;;;1.13;;
10721;SDS011;5412;59.450;18.124;2022-07-04T05:49:04;2.45;;;1.63;;
10721;SDS011;5412;59.450;18.124;2022-07-04T05:51:30;3.22;;;1.60;;
10721;SDS011;5412;59.450;18.124;2022-07-04T05:53:55;2.30;;;1.42;;
10721;SDS011;5412;59.450;18.124;2022-07-04T05:56:21;2.80;;;1.48;;
10721;SDS011;5412;59.450;18.124;2022-07-04T05:58:48;2.42;;;1.38;;
10721;SDS011;5412;59.450;18.124;2022-07-04T06:01:13;4.00;;;1.40;;
10721;SDS011;5412;59.450;18.124;2022-07-04T06:03:39;2.80;;;1.40;;
10721;SDS011;5412;59.450;18.124;2022-07-04T06:06:05;3.65;;;1.65;;
10721;SDS011;5412;59.450;18.124;2022-07-04T06:08:31;2.70;;;1.60;;
10721;SDS011;5412;59.450;18.124;2022-07-04T06:10:57;1.50;;;1.40;;
10721;SDS011;5412;59.450;18.124;2022-07-04T06:13:23;2.65;;;1.42;;
10721;SDS011;5412;59.450;18.124;2022-07-04T06:15:49;2.67;;;1.58;;
10721;SDS011;5412;59.450;18.124;2022-07-04T06:18:15;2.40;;;1.50;;
10721;SDS011;5412;59.450;18.124;2022-07-04T06:20:41;2.15;;;1.45;;
10721;SDS011;5412;59.450;18.124;2022-07-04T06:23:06;2.47;;;1.40;;
10721;SDS011;5412;59.450;18.124;2022-07-04T06:25:33;1.95;;;1.40;;
10721;SDS011;5412;59.450;18.124;2022-07-04T06:27:59;1.95;;;1.60;;
10721;SDS011;5412;59.450;18.124;2022-07-04T06:30:26;3.40;;;1.75;;
10721;SDS011;5412;59.450;18.124;2022-07-04T06:32:53;2.42;;;1.55;;
10721;SDS011;5412;59.450;18.124;2022-07-04T06:35:20;2.30;;;1.40;;
10721;SDS011;5412;59.450;18.124;2022-07-04T06:38:09;2.03;;;1.55;;
10721;SDS011;5412;59.450;18.124;2022-07-04T06:40:37;2.90;;;1.60;;
10721;SDS011;5412;59.450;18.124;2022-07-04T06:43:03;1.80;;;1.48;;
10721;SDS011;5412;59.450;18.124;2022-07-04T06:45:29;3.13;;;1.65;;
10721;SDS011;5412;59.450;18.124;2022-07-04T06:47:55;2.83;;;1.67;;
10721;SDS011;5412;59.450;18.124;2022-07-04T06:50:21;4.97;;;1.63;;
10721;SDS011;5412;59.450;18.124;2022-07-04T06:52:47;2.40;;;1.58;;
10721;SDS011;5412;59.450;18.124;2022-07-04T06:55:12;2.65;;;1.83;;
10721;SDS011;5412;59.450;18.124;2022-07-04T06:57:38;3.33;;;1.70;;
10721;SDS011;5412;59.450;18.124;2022-07-04T07:00:05;2.33;;;1.58;;
10721;SDS011;5412;59.450;18.124;2022-07-04T07:02:33;5.45;;;1.40;;
10721;SDS011;5412;59.450;18.124;2022-07-04T07:05:00;3.10;;;1.60;;
10721;SDS011;5412;59.450;18.124;2022-07-04T07:07:26;1.80;;;1.70;;
10721;SDS011;5412;59.450;18.124;2022-07-04T07:09:53;7.68;;;3.83;;
10721;SDS011;5412;59.450;18.124;2022-07-04T07:12:19;2.22;;;1.60;;
10721;SDS011;5412;59.450;18.124;2022-07-04T07:14:46;1.92;;;1.65;;
10721;SDS011;5412;59.450;18.124;2022-07-04T07:17:12;2.47;;;1.70;;
10721;SDS011;5412;59.450;18.124;2022-07-04T07:19:38;3.53;;;1.60;;
10721;SDS011;5412;59.450;18.124;2022-07-04T07:22:04;3.33;;;1.77;;
10721;SDS011;5412;59.450;18.124;2022-07-04T07:24:29;5.15;;;1.85;;
10721;SDS011;5412;59.450;18.124;2022-07-04T07:26:56;2.70;;;1.98;;
10721;SDS011;5412;59.450;18.124;2022-07-04T07:29:22;2.38;;;2.17;;
10721;SDS011;5412;59.450;18.124;2022-07-04T07:31:48;2.15;;;1.85;;
10721;SDS011;5412;59.450;18.124;2022-07-04T07:34:14;3.83;;;2.28;;
10721;SDS011;5412;59.450;18.124;2022-07-04T07:36:40;3.25;;;1.98;;
10721;SDS011;5412;59.450;18.124;2022-07-04T07:39:06;3.97;;;2.20;;
10721;SDS011;5412;59.450;18.124;2022-07-04T07:41:31;2.20;;;2.00;;
10721;SDS011;5412;59.450;18.124;2022-07-04T07:43:57;2.92;;;1.67;;
10721;SDS011;5412;59.450;18.124;2022-07-04T07:46:23;2.65;;;1.70;;
10721;SDS011;5412;59.450;18.124;2022-07-04T07:48:48;4.90;;;2.20;;
10721;SDS011;5412;59.450;18.124;2022-07-04T07:51:14;3.80;;;1.70;;
10721;SDS011;5412;59.450;18.124;2022-07-04T07:53:41;2.88;;;1.70;;
10721;SDS011;5412;59.450;18.124;2022-07-04T07:56:07;3.00;;;1.60;;
10721;SDS011;5412;59.450;18.124;2022-07-04T07:58:33;2.28;;;1.60;;
10721;SDS011;5412;59.450;18.124;2022-07-04T08:00:59;2.20;;;1.80;;
10721;SDS011;5412;59.450;18.124;2022-07-04T08:03:27;3.15;;;1.95;;
10721;SDS011;5412;59.450;18.124;2022-07-04T08:06:32;3.60;;;2.03;;
10721;SDS011;5412;59.450;18.124;2022-07-04T08:08:58;2.53;;;1.77;;
10721;SDS011;5412;59.450;18.124;2022-07-04T08:11:24;2.25;;;1.42;;
10721;SDS011;5412;59.450;18.124;2022-07-04T08:13:50;4.97;;;1.85;;
10721;SDS011;5412;59.450;18.124;2022-07-04T08:16:16;2.90;;;1.60;;
10721;SDS011;5412;59.450;18.124;2022-07-04T08:18:42;1.63;;;1.17;;
10721;SDS011;5412;59.450;18.124;2022-07-04T08:21:08;2.13;;;1.42;;
10721;SDS011;5412;59.450;18.124;2022-07-04T08:23:34;2.85;;;1.40;;
10721;SDS011;5412;59.450;18.124;2022-07-04T08:25:59;2.83;;;1.40;;
10721;SDS011;5412;59.450;18.124;2022-07-04T08:28:26;1.67;;;1.30;;
10721;SDS011;5412;59.450;18.124;2022-07-04T08:30:53;1.95;;;1.30;;
10721;SDS011;5412;59.450;18.124;2022-07-04T08:33:19;1.73;;;1.35;;
10721;SDS011;5412;59.450;18.124;2022-07-04T08:35:44;2.00;;;1.30;;
10721;SDS011;5412;59.450;18.124;2022-07-04T08:38:10;1.38;;;1.20;;
10721;SDS011;5412;59.450;18.124;2022-07-04T08:40:36;4.13;;;1.30;;
10721;SDS011;5412;59.450;18.124;2022-07-04T08:43:02;2.53;;;1.50;;
10721;SDS011;5412;59.450;18.124;2022-07-04T08:45:32;3.35;;;1.20;;
10721;SDS011;5412;59.450;18.124;2022-07-04T08:48:05;2.15;;;1.25;;
10721;SDS011;5412;59.450;18.124;2022-07-04T08:50:40;1.73;;;1.40;;
10721;SDS011;5412;59.450;18.124;2022-07-04T08:53:13;1.75;;;1.00;;
10721;SDS011;5412;59.450;18.124;2022-07-04T08:55:44;3.40;;;1.38;;
10721;SDS011;5412;59.450;18.124;2022-07-04T08:58:29;3.15;;;2.00;;
10721;SDS011;5412;59.450;18.124;2022-07-04T09:03:23;3.33;;;1.10;;
10721;SDS011;5412;59.450;18.124;2022-07-04T09:05:50;1.52;;;1.20;;
10721;SDS011;5412;59.450;18.124;2022-07-04T09:08:16;3.03;;;1.25;;
10721;SDS011;5412;59.450;18.124;2022-07-04T09:10:42;2.15;;;1.35;;
10721;SDS011;5412;59.450;18.124;2022-07-04T09:13:08;2.10;;;1.27;;
10721;SDS011;5412;59.450;18.124;2022-07-04T09:15:35;1.90;;;1.10;;
10721;SDS011;5412;59.450;18.124;2022-07-04T09:18:01;2.42;;;1.23;;
10721;SDS011;5412;59.450;18.124;2022-07-04T09:20:28;1.70;;;1.33;;
10721;SDS011;5412;59.450;18.124;2022-07-04T09:22:56;1.27;;;1.10;;
10721;SDS011;5412;59.450;18.124;2022-07-04T09:25:22;3.33;;;1.20;;
10721;SDS011;5412;59.450;18.124;2022-07-04T09:27:50;3.20;;;1.20;;
10721;SDS011;5412;59.450;18.124;2022-07-04T09:30:23;1.23;;;0.90;;
10721;SDS011;5412;59.450;18.124;2022-07-04T09:32:51;2.00;;;1.08;;
10721;SDS011;5412;59.450;18.124;2022-07-04T09:35:23;5.05;;;1.17;;
10721;SDS011;5412;59.450;18.124;2022-07-04T09:37:51;1.58;;;0.90;;
10721;SDS011;5412;59.450;18.124;2022-07-04T09:43:20;1.50;;;1.15;;
10721;SDS011;5412;59.450;18.124;2022-07-04T09:45:56;2.85;;;1.30;;
10721;SDS011;5412;59.450;18.124;2022-07-04T09:48:24;3.95;;;1.40;;
10721;SDS011;5412;59.450;18.124;2022-07-04T09:50:50;3.97;;;1.40;;
10721;SDS011;5412;59.450;18.124;2022-07-04T09:53:16;2.00;;;0.85;;
10721;SDS011;5412;59.450;18.124;2022-07-04T09:55:42;1.52;;;1.05;;
10721;SDS011;5412;59.450;18.124;2022-07-04T09:58:08;1.23;;;0.90;;
10721;SDS011;5412;59.450;18.124;2022-07-04T10:00:42;1.38;;;0.93;;
10721;SDS011;5412;59.450;18.124;2022-07-04T10:03:23;2.55;;;0.80;;
10721;SDS011;5412;59.450;18.124;2022-07-04T10:08:28;2.92;;;1.20;;
10721;SDS011;5412;59.450;18.124;2022-07-04T10:10:57;4.93;;;1.40;;
10721;SDS011;5412;59.450;18.124;2022-07-04T10:13:23;1.67;;;1.05;;
10721;SDS011;5412;59.450;18.124;2022-07-04T10:15:50;2.35;;;1.10;;
10721;SDS011;5412;59.450;18.124;2022-07-04T10:18:18;0.98;;;0.82;;
10721;SDS011;5412;59.450;18.124;2022-07-04T10:20:45;1.13;;;0.93;;
10721;SDS011;5412;59.450;18.124;2022-07-04T10:23:13;3.67;;;1.13;;
10721;SDS011;5412;59.450;18.124;2022-07-04T10:25:40;2.78;;;1.00;;
10721;SDS011;5412;59.450;18.124;2022-07-04T10:28:07;1.25;;;1.10;;
10721;SDS011;5412;59.450;18.124;2022-07-04T10:30:37;4.38;;;1.02;;
10721;SDS011;5412;59.450;18.124;2022-07-04T10:33:06;1.55;;;1.30;;
10721;SDS011;5412;59.450;18.124;2022-07-04T10:38:21;1.80;;;1.15;;
10721;SDS011;5412;59.450;18.124;2022-07-04T10:48:28;2.67;;;1.30;;
10721;SDS011;5412;59.450;18.124;2022-07-04T10:51:04;2.85;;;1.17;;
10721;SDS011;5412;59.450;18.124;2022-07-04T10:53:31;10.75;;;1.17;;
10721;SDS011;5412;59.450;18.124;2022-07-04T10:58:44;4.07;;;1.40;;
10721;SDS011;5412;59.450;18.124;2022-07-04T11:01:10;2.15;;;1.60;;
10721;SDS011;5412;59.450;18.124;2022-07-04T11:09:22;3.65;;;1.30;;
10721;SDS011;5412;59.450;18.124;2022-07-04T11:11:49;3.10;;;1.48;;
10721;SDS011;5412;59.450;18.124;2022-07-04T11:14:41;5.63;;;1.30;;
10721;SDS011;5412;59.450;18.124;2022-07-04T11:19:44;4.40;;;1.45;;
10721;SDS011;5412;59.450;18.124;2022-07-04T11:22:11;2.63;;;1.58;;
10721;SDS011;5412;59.450;18.124;2022-07-04T11:24:37;5.38;;;1.55;;
10721;SDS011;5412;59.450;18.124;2022-07-04T11:27:06;1.80;;;1.38;;
10721;SDS011;5412;59.450;18.124;2022-07-04T11:29:34;6.18;;;1.92;;
10721;SDS011;5412;59.450;18.124;2022-07-04T11:32:00;6.47;;;2.00;;
10721;SDS011;5412;59.450;18.124;2022-07-04T11:34:32;4.93;;;1.73;;
10721;SDS011;5412;59.450;18.124;2022-07-04T11:36:58;4.22;;;1.63;;
10721;SDS011;5412;59.450;18.124;2022-07-04T11:39:26;4.47;;;1.73;;
10721;SDS011;5412;59.450;18.124;2022-07-04T11:41:52;3.00;;;1.90;;
10721;SDS011;5412;59.450;18.124;2022-07-04T11:44:38;5.90;;;2.05;;
10721;SDS011;5412;59.450;18.124;2022-07-04T11:47:33;4.90;;;2.15;;
10721;SDS011;5412;59.450;18.124;2022-07-04T11:55:02;1.92;;;1.67;;
10721;SDS011;5412;59.450;18.124;2022-07-04T11:57:29;3.42;;;2.00;;
10721;SDS011;5412;59.450;18.124;2022-07-04T12:02:33;3.92;;;2.33;;
10721;SDS011;5412;59.450;18.124;2022-07-04T12:05:00;5.22;;;1.83;;
10721;SDS011;5412;59.450;18.124;2022-07-04T12:07:28;2.92;;;1.90;;
10721;SDS011;5412;59.450;18.124;2022-07-04T12:10:05;3.40;;;1.80;;
10721;SDS011;5412;59.450;18.124;2022-07-04T12:12:34;6.28;;;2.35;;
10721;SDS011;5412;59.450;18.124;2022-07-04T12:15:01;3.40;;;2.20;;
10721;SDS011;5412;59.450;18.124;2022-07-04T12:17:31;4.15;;;2.28;;
10721;SDS011;5412;59.450;18.124;2022-07-04T12:19:59;4.00;;;2.10;;
10721;SDS011;5412;59.450;18.124;2022-07-04T12:25:00;8.40;;;2.38;;
10721;SDS011;5412;59.450;18.124;2022-07-04T12:27:26;4.90;;;1.80;;
10721;SDS011;5412;59.450;18.124;2022-07-04T12:29:56;6.05;;;1.95;;
10721;SDS011;5412;59.450;18.124;2022-07-04T12:32:43;5.13;;;1.50;;
10721;SDS011;5412;59.450;18.124;2022-07-04T12:40:56;3.00;;;1.30;;
10721;SDS011;5412;59.450;18.124;2022-07-04T12:43:23;6.15;;;2.25;;
10721;SDS011;5412;59.450;18.124;2022-07-04T12:46:04;2.42;;;1.73;;
10721;SDS011;5412;59.450;18.124;2022-07-04T12:48:31;2.38;;;1.50;;
10721;SDS011;5412;59.450;18.124;2022-07-04T12:53:59;1.70;;;1.60;;
10721;SDS011;5412;59.450;18.124;2022-07-04T12:56:39;2.75;;;1.52;;
10721;SDS011;5412;59.450;18.124;2022-07-04T12:59:08;3.67;;;1.50;;
10721;SDS011;5412;59.450;18.124;2022-07-04T13:01:38;1.50;;;1.40;;
10721;SDS011;5412;59.450;18.124;2022-07-04T13:04:05;1.73;;;1.63;;
10721;SDS011;5412;59.450;18.124;2022-07-04T13:06:31;2.17;;;1.88;;
10721;SDS011;5412;59.450;18.124;2022-07-04T13:08:57;2.60;;;1.50;;
10721;SDS011;5412;59.450;18.124;2022-07-04T13:11:23;2.95;;;1.40;;
10721;SDS011;5412;59.450;18.124;2022-07-04T13:14:08;2.90;;;1.35;;
10721;SDS011;5412;59.450;18.124;2022-07-04T13:16:34;2.55;;;1.30;;
10721;SDS011;5412;59.450;18.124;2022-07-04T13:19:00;3.42;;;1.63;;
10721;SDS011;5412;59.450;18.124;2022-07-04T13:21:26;2.08;;;1.40;;
10721;SDS011;5412;59.450;18.124;2022-07-04T13:23:52;2.35;;;1.65;;
10721;SDS011;5412;59.450;18.124;2022-07-04T13:26:18;2.05;;;1.42;;
10721;SDS011;5412;59.450;18.124;2022-07-04T13:28:43;4.35;;;1.50;;
10721;SDS011;5412;59.450;18.124;2022-07-04T13:31:10;1.45;;;1.10;;
10721;SDS011;5412;59.450;18.124;2022-07-04T13:33:35;1.48;;;1.10;;
10721;SDS011;5412;59.450;18.124;2022-07-04T13:36:01;1.30;;;1.20;;
10721;SDS011;5412;59.450;18.124;2022-07-04T13:38:27;1.73;;;1.63;;
10721;SDS011;5412;59.450;18.124;2022-07-04T13:40:54;2.42;;;1.50;;
10721;SDS011;5412;59.450;18.124;2022-07-04T13:43:22;1.48;;;1.33;;
10721;SDS011;5412;59.450;18.124;2022-07-04T13:45:54;2.67;;;1.45;;
10721;SDS011;5412;59.450;18.124;2022-07-04T13:48:20;1.85;;;1.30;;
10721;SDS011;5412;59.450;18.124;2022-07-04T13:50:45;1.40;;;1.20;;
10721;SDS011;5412;59.450;18.124;2022-07-04T13:53:11;1.77;;;1.27;;
10721;SDS011;5412;59.450;18.124;2022-07-04T13:55:37;1.40;;;1.30;;
10721;SDS011;5412;59.450;18.124;2022-07-04T13:58:06;1.35;;;1.20;;
10721;SDS011;5412;59.450;18.124;2022-07-04T14:00:33;1.55;;;1.20;;
10721;SDS011;5412;59.450;18.124;2022-07-04T14:02:59;2.13;;;1.27;;
10721;SDS011;5412;59.450;18.124;2022-07-04T14:05:25;1.73;;;1.10;;
10721;SDS011;5412;59.450;18.124;2022-07-04T14:07:51;1.33;;;1.08;;
10721;SDS011;5412;59.450;18.124;2022-07-04T14:10:17;1.70;;;1.27;;
10721;SDS011;5412;59.450;18.124;2022-07-04T14:12:43;1.95;;;1.45;;
10721;SDS011;5412;59.450;18.124;2022-07-04T14:15:09;2.25;;;1.25;;
10721;SDS011;5412;59.450;18.124;2022-07-04T14:17:35;2.58;;;1.30;;
10721;SDS011;5412;59.450;18.124;2022-07-04T14:20:05;1.45;;;1.35;;
10721;SDS011;5412;59.450;18.124;2022-07-04T14:22:33;1.52;;;1.42;;
10721;SDS011;5412;59.450;18.124;2022-07-04T14:24:59;2.20;;;1.40;;
10721;SDS011;5412;59.450;18.124;2022-07-04T14:27:25;1.92;;;1.50;;
10721;SDS011;5412;59.450;18.124;2022-07-04T14:29:50;2.00;;;1.73;;
10721;SDS011;5412;59.450;18.124;2022-07-04T14:32:16;1.40;;;1.30;;
10721;SDS011;5412;59.450;18.124;2022-07-04T14:34:42;3.25;;;1.52;;
10721;SDS011;5412;59.450;18.124;2022-07-04T14:37:07;2.03;;;1.83;;
10721;SDS011;5412;59.450;18.124;2022-07-04T14:39:33;9.05;;;2.60;;
10721;SDS011;5412;59.450;18.124;2022-07-04T14:41:59;13.23;;;2.50;;
10721;SDS011;5412;59.450;18.124;2022-07-04T14:44:24;3.05;;;1.45;;
10721;SDS011;5412;59.450;18.124;2022-07-04T14:46:50;1.38;;;0.82;;
10721;SDS011;5412;59.450;18.124;2022-07-04T14:49:16;3.75;;;0.90;;
10721;SDS011;5412;59.450;18.124;2022-07-04T14:51:42;2.03;;;0.85;;
10721;SDS011;5412;59.450;18.124;2022-07-04T14:54:08;1.88;;;1.10;;
10721;SDS011;5412;59.450;18.124;2022-07-04T14:56:34;1.23;;;0.90;;
10721;SDS011;5412;59.450;18.124;2022-07-04T14:59:01;1.52;;;1.15;;
10721;SDS011;5412;59.450;18.124;2022-07-04T15:01:27;2.00;;;1.58;;
10721;SDS011;5412;59.450;18.124;2022-07-04T15:03:53;1.65;;;1.10;;
10721;SDS011;5412;59.450;18.124;2022-07-04T15:06:19;3.42;;;1.25;;
10721;SDS011;5412;59.450;18.124;2022-07-04T15:08:44;2.10;;;1.20;;
10721;SDS011;5412;59.450;18.124;2022-07-04T15:11:10;9.10;;;1.52;;
10721;SDS011;5412;59.450;18.124;2022-07-04T15:13:36;2.22;;;1.42;;
10721;SDS011;5412;59.450;18.124;2022-07-04T15:16:01;1.60;;;1.50;;
10721;SDS011;5412;59.450;18.124;2022-07-04T15:18:27;5.47;;;1.60;;
10721;SDS011;5412;59.450;18.124;2022-07-04T15:20:53;2.10;;;1.52;;
10721;SDS011;5412;59.450;18.124;2022-07-04T15:23:37;3.67;;;1.60;;
10721;SDS011;5412;59.450;18.124;2022-07-04T15:26:21;1.98;;;1.33;;
10721;SDS011;5412;59.450;18.124;2022-07-04T15:28:46;2.55;;;1.50;;
10721;SDS011;5412;59.450;18.124;2022-07-04T15:31:12;2.25;;;1.45;;
10721;SDS011;5412;59.450;18.124;2022-07-04T15:33:38;2.20;;;1.50;;
10721;SDS011;5412;59.450;18.124;2022-07-04T15:36:03;3.10;;;1.40;;